Time;durP1;ratioP1;P1;durP2;ratioP2;P2;SDS_P1;SDS_P2;PMS_P1;PMS_P2;Temp;Humidity;BMP_temperature;BMP_pressure;BME280_temperature;BME280_humidity;BME280_pressure;Samples;Min_cycle;Max_cycle;Signal;HPM_P1;HPM_P2
2022/12/18 00:01:48;;;;;;;;;;;-4.50;99.90;;;;;;4998236;28;19925;-73
2022/12/18 00:04:22;;;;;;;;;;;-4.50;99.90;;;;;;5019104;28;19925;-71
2022/12/18 00:06:54;;;;;;;;;;;-4.50;99.90;;;;;;5008801;28;19940;-73
2022/12/18 00:09:25;;;;;;;;;;;-4.40;99.90;;;;;;5004571;28;19925;-73
2022/12/18 00:11:57;;;;;;;;;;;-4.50;99.90;;;;;;5000388;28;19972;-73
2022/12/18 00:14:28;;;;;;;;;;;-4.50;99.90;;;;;;5000941;28;20376;-75
2022/12/18 00:17:00;;;;;;;;;;;-4.40;99.90;;;;;;4986739;28;19929;-73
2022/12/18 00:19:32;;;;;;;;;;;-4.50;99.90;;;;;;5023070;28;19936;-73
2022/12/18 00:22:03;;;;;;;;;;;-4.50;99.90;;;;;;5000761;28;19929;-75
2022/12/18 00:24:35;;;;;;;;;;;-4.50;99.90;;;;;;4998607;28;19971;-72
2022/12/18 00:27:06;;;;;;;;;;;-4.50;99.90;;;;;;4984312;28;19960;-73
2022/12/18 00:29:41;;;;;;;;;;;-4.50;99.90;;;;;;5016017;28;19933;-73
2022/12/18 00:32:13;;;;;;;;;;;-4.50;99.90;;;;;;5017466;28;19933;-74
2022/12/18 00:34:44;;;;;;;;;;;-4.50;99.90;;;;;;4988851;28;19929;-75
2022/12/18 00:37:16;;;;;;;;;;;-4.40;99.90;;;;;;4991047;28;19975;-72
2022/12/18 00:39:50;;;;;;;;;;;-4.40;99.90;;;;;;5014243;28;20016;-74
2022/12/18 00:45:11;;;;;;;;;;;-4.40;99.90;;;;;;5006010;28;19925;-74
2022/12/18 00:47:38;;;;;;;;;;;-4.40;99.90;;;;;;5025441;28;19929;-72
2022/12/18 00:50:10;;;;;;;;;;;-4.40;99.90;;;;;;5020875;28;19926;-72
2022/12/18 00:52:42;;;;;;;;;;;-4.40;99.90;;;;;;4990657;28;19933;-75
2022/12/18 00:55:14;;;;;;;;;;;-4.40;99.90;;;;;;5004564;28;19925;-74
2022/12/18 00:57:46;;;;;;;;;;;-4.40;99.90;;;;;;5014607;28;19932;-74
2022/12/18 01:00:13;;;;;;;;;;;-4.40;99.90;;;;;;5020668;28;19929;-72
2022/12/18 01:02:45;;;;;;;;;;;-4.40;99.90;;;;;;5012040;28;19929;-73
2022/12/18 01:05:16;;;;;;;;;;;-4.40;99.90;;;;;;5015558;28;19929;-75
2022/12/18 01:07:48;;;;;;;;;;;-4.50;99.90;;;;;;5020911;28;19929;-73
2022/12/18 01:10:20;;;;;;;;;;;-4.50;99.90;;;;;;5022262;28;20776;-74
2022/12/18 01:12:51;;;;;;;;;;;-4.50;99.90;;;;;;4985879;28;19925;-72
2022/12/18 01:15:23;;;;;;;;;;;-4.50;99.90;;;;;;5018618;28;19975;-74
2022/12/18 01:17:55;;;;;;;;;;;-4.50;99.90;;;;;;5021936;28;19932;-72
2022/12/18 01:20:26;;;;;;;;;;;-4.50;99.90;;;;;;5019014;28;20133;-72
2022/12/18 01:22:58;;;;;;;;;;;-4.40;99.90;;;;;;5020753;28;20331;-73
2022/12/18 01:25:29;;;;;;;;;;;-4.40;99.90;;;;;;4982627;28;20035;-71
2022/12/18 01:27:56;;;;;;;;;;;-4.50;99.90;;;;;;4992100;28;19926;-74
2022/12/18 01:30:28;;;;;;;;;;;-4.40;99.90;;;;;;4987285;28;19938;-75
2022/12/18 01:33:00;;;;;;;;;;;-4.40;99.90;;;;;;5016534;28;19932;-75
2022/12/18 01:35:32;;;;;;;;;;;-4.40;99.90;;;;;;5006061;28;19925;-74
2022/12/18 01:38:03;;;;;;;;;;;-4.40;99.90;;;;;;5004650;28;20040;-73
2022/12/18 01:40:30;;;;;;;;;;;-4.40;99.90;;;;;;4991124;28;20545;-73
2022/12/18 01:43:02;;;;;;;;;;;-4.40;99.90;;;;;;5018534;28;19959;-73
2022/12/18 01:45:33;;;;;;;;;;;-4.40;99.90;;;;;;5002702;28;19925;-73
2022/12/18 01:48:01;;;;;;;;;;;-4.30;99.90;;;;;;4983713;28;19935;-74
2022/12/18 01:50:38;;;;;;;;;;;-4.40;99.90;;;;;;4986318;28;20407;-74
2022/12/18 01:53:11;;;;;;;;;;;-4.40;99.90;;;;;;5001062;28;19929;-73
2022/12/18 01:55:46;;;;;;;;;;;-4.40;99.90;;;;;;5019527;28;19937;-76
2022/12/18 01:58:19;;;;;;;;;;;-4.40;99.90;;;;;;5022036;28;19929;-72
2022/12/18 02:00:50;;;;;;;;;;;-4.30;99.90;;;;;;5003071;28;19936;-73
2022/12/18 02:03:22;;;;;;;;;;;-4.30;99.90;;;;;;4988482;28;20655;-73
2022/12/18 02:06:06;;;;;;;;;;;-4.30;99.90;;;;;;5022455;28;20116;-75
2022/12/18 02:08:49;;;;;;;;;;;-4.30;99.90;;;;;;5018467;28;19925;-73
2022/12/18 02:11:21;;;;;;;;;;;-4.30;99.90;;;;;;5019876;28;19933;-72
2022/12/18 02:14:11;;;;;;;;;;;-4.30;99.90;;;;;;5008321;28;19925;-75
2022/12/18 02:16:43;;;;;;;;;;;-4.30;99.90;;;;;;5020251;28;20152;-73
2022/12/18 02:19:34;;;;;;;;;;;-4.30;99.90;;;;;;5005428;28;20020;-74
2022/12/18 02:22:17;;;;;;;;;;;-4.30;99.90;;;;;;5000709;28;19930;-71
2022/12/18 02:24:58;;;;;;;;;;;-4.30;99.90;;;;;;4982135;28;19929;-72
2022/12/18 02:27:27;;;;;;;;;;;-4.30;99.90;;;;;;5017871;28;19926;-74
2022/12/18 02:30:00;;;;;;;;;;;-4.30;99.90;;;;;;5016127;28;19936;-71
2022/12/18 02:32:34;;;;;;;;;;;-4.30;99.90;;;;;;5002086;28;19932;-71
2022/12/18 02:35:07;;;;;;;;;;;-4.30;99.90;;;;;;4984144;28;20012;-73
2022/12/18 02:37:41;;;;;;;;;;;-4.30;99.90;;;;;;5018357;28;19925;-72
2022/12/18 02:40:14;;;;;;;;;;;-4.20;99.90;;;;;;4991445;28;20035;-72
2022/12/18 02:42:41;;;;;;;;;;;-4.20;99.90;;;;;;5012295;28;20012;-76
2022/12/18 02:45:15;;;;;;;;;;;-4.20;99.90;;;;;;5012470;28;20019;-75
2022/12/18 02:47:43;;;;;;;;;;;-4.20;99.90;;;;;;5010941;28;19929;-74
2022/12/18 02:50:21;;;;;;;;;;;-4.10;99.90;;;;;;5024368;28;19979;-73
2022/12/18 02:53:14;;;;;;;;;;;-4.20;99.90;;;;;;5026058;28;19972;-73
2022/12/18 02:56:03;;;;;;;;;;;-4.10;99.90;;;;;;5022753;28;19929;-72
2022/12/18 02:58:37;;;;;;;;;;;-4.10;99.90;;;;;;5018683;28;20431;-72
2022/12/18 03:01:39;;;;;;;;;;;-4.20;99.90;;;;;;5018024;28;20503;-73
2022/12/18 03:04:21;;;;;;;;;;;-4.10;99.90;;;;;;4996951;28;20388;-72
2022/12/18 03:06:57;;;;;;;;;;;-4.10;99.90;;;;;;5026468;28;19925;-76
2022/12/18 03:09:35;;;;;;;;;;;-4.10;99.90;;;;;;5010581;28;19930;-73
2022/12/18 03:12:22;;;;;;;;;;;-4.10;99.90;;;;;;5017734;28;19925;-72
2022/12/18 03:15:04;;;;;;;;;;;-4.00;99.90;;;;;;5003852;28;19971;-73
2022/12/18 03:17:32;;;;;;;;;;;-4.00;99.90;;;;;;5007592;28;19925;-76
2022/12/18 03:20:15;;;;;;;;;;;-4.00;99.90;;;;;;5018606;28;20778;-75
2022/12/18 03:22:50;;;;;;;;;;;-4.00;99.90;;;;;;4999677;28;19956;-75
2022/12/18 03:25:18;;;;;;;;;;;-4.00;99.90;;;;;;5009755;28;20384;-75
2022/12/18 03:27:56;;;;;;;;;;;-4.00;99.90;;;;;;4996362;28;20737;-74
2022/12/18 03:30:29;;;;;;;;;;;-4.00;99.90;;;;;;5024453;28;19976;-76
2022/12/18 03:33:04;;;;;;;;;;;-4.00;99.90;;;;;;4997617;28;20409;-73
2022/12/18 03:35:40;;;;;;;;;;;-4.00;99.90;;;;;;5025063;28;20020;-74
2022/12/18 03:38:12;;;;;;;;;;;-3.90;99.90;;;;;;5011568;28;20044;-73
2022/12/18 03:40:43;;;;;;;;;;;-3.90;99.90;;;;;;4990159;28;19967;-75
2022/12/18 03:43:30;;;;;;;;;;;-3.90;99.90;;;;;;5011512;28;19983;-73
2022/12/18 03:46:07;;;;;;;;;;;-3.90;99.90;;;;;;5003558;28;19925;-75
2022/12/18 03:48:43;;;;;;;;;;;-3.90;99.90;;;;;;5015379;28;20018;-76
2022/12/18 03:51:26;;;;;;;;;;;-3.90;99.90;;;;;;5016179;28;20120;-72
2022/12/18 03:53:55;;;;;;;;;;;-3.90;99.90;;;;;;5023052;28;19925;-72
2022/12/18 03:56:44;;;;;;;;;;;-3.90;99.90;;;;;;4992869;28;19932;-75
2022/12/18 03:59:16;;;;;;;;;;;-3.90;99.90;;;;;;5021305;28;19925;-74
2022/12/18 04:01:46;;;;;;;;;;;-3.90;99.90;;;;;;4986414;28;20052;-77
2022/12/18 04:04:20;;;;;;;;;;;-3.80;99.90;;;;;;5018317;28;19961;-74
2022/12/18 04:06:52;;;;;;;;;;;-3.80;99.90;;;;;;5018969;28;19972;-75
2022/12/18 04:09:24;;;;;;;;;;;-3.80;99.90;;;;;;4991217;28;20024;-73
2022/12/18 04:11:55;;;;;;;;;;;-3.80;99.90;;;;;;5021438;28;19925;-74
2022/12/18 04:14:28;;;;;;;;;;;-3.90;99.90;;;;;;5018211;28;20052;-73
2022/12/18 04:17:00;;;;;;;;;;;-4.00;99.90;;;;;;5019189;28;19925;-72
2022/12/18 04:19:32;;;;;;;;;;;-3.90;99.90;;;;;;5021075;28;19933;-74
2022/12/18 04:22:04;;;;;;;;;;;-3.90;99.90;;;;;;4996820;28;19929;-74
2022/12/18 04:24:41;;;;;;;;;;;-4.00;99.90;;;;;;5017556;28;20008;-74
2022/12/18 04:27:21;;;;;;;;;;;-4.00;99.90;;;;;;5018340;28;19972;-75
2022/12/18 04:29:52;;;;;;;;;;;-4.00;99.90;;;;;;4986064;28;19925;-75
2022/12/18 04:32:24;;;;;;;;;;;-4.10;99.90;;;;;;5010478;28;20380;-72
2022/12/18 04:34:50;;;;;;;;;;;-4.10;99.90;;;;;;5017243;28;19939;-74
2022/12/18 04:37:22;;;;;;;;;;;-4.10;99.90;;;;;;5012338;28;19925;-73
2022/12/18 04:39:54;;;;;;;;;;;-4.10;99.90;;;;;;4983717;28;20011;-74
2022/12/18 04:42:33;;;;;;;;;;;-4.10;99.90;;;;;;5016715;28;20307;-75
2022/12/18 04:45:04;;;;;;;;;;;-4.10;99.90;;;;;;5006571;28;19979;-74
2022/12/18 04:47:31;;;;;;;;;;;-4.10;99.90;;;;;;5024900;28;19929;-74
2022/12/18 04:49:58;;;;;;;;;;;-4.10;99.90;;;;;;5012941;28;19933;-74
2022/12/18 04:52:32;;;;;;;;;;;-4.10;99.90;;;;;;4999669;28;19975;-73
2022/12/18 04:55:04;;;;;;;;;;;-4.00;99.90;;;;;;5011821;28;19937;-73
2022/12/18 04:57:36;;;;;;;;;;;-4.10;99.90;;;;;;5009360;28;19925;-74
2022/12/18 05:00:08;;;;;;;;;;;-4.00;99.90;;;;;;5023979;28;20292;-74
2022/12/18 05:02:39;;;;;;;;;;;-4.10;99.90;;;;;;5016324;28;20338;-74
2022/12/18 05:05:06;;;;;;;;;;;-4.10;99.90;;;;;;5006545;28;19925;-74
2022/12/18 05:07:38;;;;;;;;;;;-4.10;99.90;;;;;;5024351;28;19976;-75
2022/12/18 05:10:09;;;;;;;;;;;-4.10;99.90;;;;;;5009539;28;19991;-75
2022/12/18 05:12:57;;;;;;;;;;;-4.10;99.90;;;;;;5018063;28;19929;-75
2022/12/18 05:15:30;;;;;;;;;;;-4.20;99.90;;;;;;5011585;28;19929;-73
2022/12/18 05:17:57;;;;;;;;;;;-4.20;99.90;;;;;;5012505;28;19930;-75
2022/12/18 05:20:29;;;;;;;;;;;-4.10;99.90;;;;;;4986478;28;19932;-74
2022/12/18 05:23:00;;;;;;;;;;;-4.10;99.90;;;;;;5016896;28;19952;-74
2022/12/18 05:25:32;;;;;;;;;;;-4.10;99.90;;;;;;5023257;28;19971;-75
2022/12/18 05:27:59;;;;;;;;;;;-4.10;99.90;;;;;;5010947;28;19976;-74
2022/12/18 05:30:30;;;;;;;;;;;-4.10;99.90;;;;;;5012045;28;20307;-74
2022/12/18 05:33:02;;;;;;;;;;;-4.10;99.90;;;;;;5018341;28;19933;-74
2022/12/18 05:35:33;;;;;;;;;;;-4.10;99.90;;;;;;4985989;28;19948;-74
2022/12/18 05:38:00;;;;;;;;;;;-4.20;99.90;;;;;;5020066;28;19929;-74
2022/12/18 05:40:32;;;;;;;;;;;-4.20;99.90;;;;;;5009866;28;19976;-74
2022/12/18 05:43:06;;;;;;;;;;;-4.30;99.90;;;;;;4996777;28;19972;-75
2022/12/18 05:45:38;;;;;;;;;;;-4.30;99.90;;;;;;5022077;28;19933;-74
2022/12/18 05:48:12;;;;;;;;;;;-4.30;99.90;;;;;;5009563;28;19925;-75
2022/12/18 05:50:48;;;;;;;;;;;-4.30;99.90;;;;;;5013500;28;20446;-74
2022/12/18 05:53:20;;;;;;;;;;;-4.30;99.90;;;;;;5020711;28;19936;-74
2022/12/18 05:55:51;;;;;;;;;;;-4.30;99.90;;;;;;5009532;28;20417;-74
2022/12/18 05:58:23;;;;;;;;;;;-4.30;99.90;;;;;;4984876;28;19927;-75
2022/12/18 06:00:54;;;;;;;;;;;-4.30;99.90;;;;;;5004159;28;19925;-74
2022/12/18 06:03:26;;;;;;;;;;;-4.30;99.90;;;;;;5018413;28;19991;-74
2022/12/18 06:05:57;;;;;;;;;;;-4.20;99.90;;;;;;5021315;28;19960;-76
2022/12/18 06:08:29;;;;;;;;;;;-4.20;99.90;;;;;;5023317;28;19992;-74
2022/12/18 06:11:01;;;;;;;;;;;-4.20;99.90;;;;;;5017747;28;20324;-74
2022/12/18 06:13:32;;;;;;;;;;;-4.30;99.90;;;;;;5027559;28;19929;-75
2022/12/18 06:16:01;;;;;;;;;;;-4.30;99.90;;;;;;5002411;28;19925;-74
2022/12/18 06:18:32;;;;;;;;;;;-4.20;99.90;;;;;;5025100;28;19956;-76
2022/12/18 06:21:04;;;;;;;;;;;-4.20;99.90;;;;;;5013684;28;19983;-74
2022/12/18 06:23:36;;;;;;;;;;;-4.20;99.90;;;;;;4995982;28;20625;-74
2022/12/18 06:26:09;;;;;;;;;;;-4.20;99.90;;;;;;5006429;28;20350;-75
2022/12/18 06:28:41;;;;;;;;;;;-4.20;99.90;;;;;;5032850;28;19929;-74
2022/12/18 06:31:12;;;;;;;;;;;-4.20;99.90;;;;;;4971836;28;19926;-74
2022/12/18 06:33:44;;;;;;;;;;;-4.20;99.90;;;;;;5017150;28;19929;-75
2022/12/18 06:36:16;;;;;;;;;;;-4.20;99.90;;;;;;5028759;28;20454;-74
2022/12/18 06:38:48;;;;;;;;;;;-4.20;99.90;;;;;;5017028;28;19929;-74
2022/12/18 06:41:20;;;;;;;;;;;-4.10;99.90;;;;;;5020389;28;19929;-74
2022/12/18 06:43:52;;;;;;;;;;;-4.10;99.90;;;;;;5005822;28;20361;-74
2022/12/18 06:46:24;;;;;;;;;;;-4.10;99.90;;;;;;5006625;28;20389;-75
2022/12/18 06:48:55;;;;;;;;;;;-4.10;99.90;;;;;;5008101;28;19926;-74
2022/12/18 06:51:27;;;;;;;;;;;-4.10;99.90;;;;;;5010465;28;20427;-74
2022/12/18 06:53:58;;;;;;;;;;;-4.10;99.90;;;;;;5019895;28;19983;-74
2022/12/18 06:56:30;;;;;;;;;;;-4.10;99.90;;;;;;5012716;28;19976;-75
2022/12/18 06:59:02;;;;;;;;;;;-4.10;99.90;;;;;;5027648;28;19926;-74
2022/12/18 07:01:33;;;;;;;;;;;-4.10;99.90;;;;;;5011402;28;19932;-74
2022/12/18 07:04:00;;;;;;;;;;;-4.10;99.90;;;;;;5017105;28;19995;-75
2022/12/18 07:06:32;;;;;;;;;;;-4.00;99.90;;;;;;4987127;28;19953;-76
2022/12/18 07:09:03;;;;;;;;;;;-4.00;99.90;;;;;;5031722;28;20260;-74
2022/12/18 07:11:32;;;;;;;;;;;-4.10;99.90;;;;;;5026201;28;20380;-74
2022/12/18 07:14:03;;;;;;;;;;;-4.10;99.90;;;;;;5023974;28;20125;-74
2022/12/18 07:16:35;;;;;;;;;;;-4.10;99.90;;;;;;5029666;28;20276;-74
2022/12/18 07:19:07;;;;;;;;;;;-4.10;99.90;;;;;;5030077;28;19929;-74
2022/12/18 07:21:38;;;;;;;;;;;-4.10;99.90;;;;;;5023686;28;19950;-74
2022/12/18 07:24:10;;;;;;;;;;;-4.10;99.90;;;;;;5007139;28;19925;-74
2022/12/18 07:26:36;;;;;;;;;;;-4.10;99.90;;;;;;5000432;28;19925;-75
2022/12/18 07:29:08;;;;;;;;;;;-4.10;99.90;;;;;;5023535;28;19956;-75
2022/12/18 07:31:39;;;;;;;;;;;-4.10;99.90;;;;;;4996763;28;19925;-74
2022/12/18 07:34:12;;;;;;;;;;;-4.10;99.90;;;;;;5011436;28;19925;-74
2022/12/18 07:36:44;;;;;;;;;;;-4.10;99.90;;;;;;4998707;28;20375;-75
2022/12/18 07:39:15;;;;;;;;;;;-4.10;99.90;;;;;;5014108;28;20003;-74
2022/12/18 07:42:30;;;;;;;;;;;-4.10;99.90;;;;;;5014670;28;19929;-74
2022/12/18 07:44:39;;;;;;;;;;;-4.00;99.90;;;;;;5020291;28;19999;-74
2022/12/18 07:47:10;;;;;;;;;;;-4.00;99.90;;;;;;5015502;28;20375;-74
2022/12/18 07:49:42;;;;;;;;;;;-4.00;99.90;;;;;;5028179;28;20334;-75
2022/12/18 07:52:13;;;;;;;;;;;-4.00;99.90;;;;;;5022490;28;20049;-75
2022/12/18 07:54:45;;;;;;;;;;;-4.00;99.90;;;;;;5018652;28;19926;-75
2022/12/18 07:57:17;;;;;;;;;;;-4.00;99.90;;;;;;5011985;28;19972;-76
2022/12/18 07:59:49;;;;;;;;;;;-4.00;99.90;;;;;;5011679;28;19979;-75
2022/12/18 08:02:20;;;;;;;;;;;-4.00;99.90;;;;;;5025198;28;19929;-75
2022/12/18 08:04:52;;;;;;;;;;;-4.00;99.90;;;;;;5020000;28;19929;-77
2022/12/18 08:07:18;;;;;;;;;;;-4.00;99.90;;;;;;4996978;28;19944;-75
2022/12/18 08:09:50;;;;;;;;;;;-4.00;99.90;;;;;;5014619;28;19925;-75
2022/12/18 08:12:16;;;;;;;;;;;-3.90;99.90;;;;;;5021814;28;19952;-75
2022/12/18 08:14:43;;;;;;;;;;;-4.00;99.90;;;;;;5009857;28;19925;-74
2022/12/18 08:17:14;;;;;;;;;;;-4.00;99.90;;;;;;5003928;28;19951;-75
2022/12/18 08:19:46;;;;;;;;;;;-3.90;99.90;;;;;;5007303;28;19925;-75
2022/12/18 08:22:18;;;;;;;;;;;-3.90;99.90;;;;;;5009569;28;19925;-75
2022/12/18 08:24:45;;;;;;;;;;;-3.90;99.90;;;;;;5009365;28;19980;-76
2022/12/18 08:27:11;;;;;;;;;;;-3.70;99.90;;;;;;5012655;28;19948;-75
2022/12/18 08:29:43;;;;;;;;;;;-3.10;99.90;;;;;;5013504;28;19975;-74
2022/12/18 08:32:14;;;;;;;;;;;-3.00;99.90;;;;;;5016803;28;19925;-75
2022/12/18 08:34:46;;;;;;;;;;;-3.00;99.90;;;;;;5017838;28;20388;-75
2022/12/18 08:37:18;;;;;;;;;;;-3.10;99.90;;;;;;5010849;28;19929;-74
2022/12/18 08:39:44;;;;;;;;;;;-3.10;99.90;;;;;;5011236;28;20438;-77
2022/12/18 08:45:02;;;;;;;;;;;-3.10;99.90;;;;;;5003936;28;19926;-74
2022/12/18 08:47:33;;;;;;;;;;;-3.20;99.90;;;;;;4987541;28;19925;-74
2022/12/18 08:50:05;;;;;;;;;;;-3.20;99.90;;;;;;5014541;28;19980;-75
2022/12/18 08:52:37;;;;;;;;;;;-3.30;99.90;;;;;;4995005;28;19925;-75
2022/12/18 08:55:09;;;;;;;;;;;-3.30;99.90;;;;;;5020489;28;19925;-75
2022/12/18 08:57:41;;;;;;;;;;;-3.30;99.90;;;;;;4988588;28;19929;-76
2022/12/18 09:00:13;;;;;;;;;;;-3.30;99.90;;;;;;5011131;28;19926;-74
2022/12/18 09:02:44;;;;;;;;;;;-3.30;99.90;;;;;;5011197;28;19926;-74
2022/12/18 09:05:16;;;;;;;;;;;-3.40;99.90;;;;;;5001833;28;19972;-74
2022/12/18 09:07:47;;;;;;;;;;;-3.40;99.90;;;;;;5010671;28;19952;-74
2022/12/18 09:10:19;;;;;;;;;;;-3.40;99.90;;;;;;4979085;28;19930;-74
2022/12/18 09:12:51;;;;;;;;;;;-3.50;99.90;;;;;;5011061;28;19925;-75
2022/12/18 09:15:22;;;;;;;;;;;-3.40;99.90;;;;;;5002507;28;20498;-74
2022/12/18 09:17:54;;;;;;;;;;;-3.40;99.90;;;;;;4994066;28;19974;-74
2022/12/18 09:20:28;;;;;;;;;;;-3.40;99.90;;;;;;4995208;28;19929;-74
2022/12/18 09:22:59;;;;;;;;;;;-3.40;99.90;;;;;;4994644;28;19991;-75
2022/12/18 09:25:32;;;;;;;;;;;-3.30;99.90;;;;;;5024116;28;19932;-75
2022/12/18 09:28:05;;;;;;;;;;;-3.30;99.90;;;;;;4993967;28;20350;-74
2022/12/18 09:30:38;;;;;;;;;;;-3.30;99.90;;;;;;5027520;28;20445;-74
2022/12/18 09:33:10;;;;;;;;;;;-3.30;99.90;;;;;;5010909;28;19925;-74
2022/12/18 09:35:40;;;;;;;;;;;-3.30;99.90;;;;;;5008678;28;19925;-75
2022/12/18 09:38:19;;;;;;;;;;;-3.30;99.90;;;;;;5013773;28;19979;-74
2022/12/18 09:40:52;;;;;;;;;;;-3.20;99.90;;;;;;5010835;28;19953;-75
2022/12/18 09:43:35;;;;;;;;;;;-3.10;99.90;;;;;;4999891;28;20392;-74
2022/12/18 09:46:14;;;;;;;;;;;-3.10;99.90;;;;;;5010360;28;19933;-75
2022/12/18 09:48:49;;;;;;;;;;;-3.00;99.90;;;;;;4998592;28;19925;-76
2022/12/18 09:51:27;;;;;;;;;;;-3.00;99.90;;;;;;5000558;28;19932;-74
2022/12/18 09:54:01;;;;;;;;;;;-3.00;99.90;;;;;;5017699;28;19925;-74
2022/12/18 09:56:35;;;;;;;;;;;-3.00;99.90;;;;;;5002307;28;19975;-75
2022/12/18 09:59:14;;;;;;;;;;;-2.90;99.90;;;;;;4994922;28;20384;-75
2022/12/18 10:01:45;;;;;;;;;;;-3.00;99.90;;;;;;5010186;28;19936;-74
2022/12/18 10:04:12;;;;;;;;;;;-3.00;99.90;;;;;;4993300;28;19976;-74
2022/12/18 10:06:44;;;;;;;;;;;-3.00;99.90;;;;;;5011392;28;20495;-74
2022/12/18 10:09:18;;;;;;;;;;;-3.10;99.90;;;;;;4993853;28;19979;-74
2022/12/18 10:12:05;;;;;;;;;;;-3.10;99.90;;;;;;5010298;28;19929;-74
2022/12/18 10:14:54;;;;;;;;;;;-3.00;99.90;;;;;;5014540;28;19925;-76
2022/12/18 10:17:38;;;;;;;;;;;-3.10;99.90;;;;;;5017831;28;19925;-75
2022/12/18 10:20:28;;;;;;;;;;;-3.10;99.90;;;;;;5016199;28;19925;-75
2022/12/18 10:22:59;;;;;;;;;;;-3.00;99.90;;;;;;5009835;28;19996;-75
2022/12/18 10:25:37;;;;;;;;;;;-3.10;99.90;;;;;;5016496;28;19926;-75
2022/12/18 10:28:10;;;;;;;;;;;-3.10;99.90;;;;;;5009839;28;19926;-74
2022/12/18 10:30:42;;;;;;;;;;;-3.10;99.90;;;;;;5001537;28;19932;-75
2022/12/18 10:33:12;;;;;;;;;;;-3.30;99.90;;;;;;5010512;28;19952;-74
2022/12/18 10:35:44;;;;;;;;;;;-3.40;99.90;;;;;;4998593;28;19929;-76
2022/12/18 10:38:16;;;;;;;;;;;-3.30;99.90;;;;;;4989989;28;19972;-77
2022/12/18 10:40:56;;;;;;;;;;;-3.20;99.90;;;;;;5003561;28;19972;-74
2022/12/18 10:43:38;;;;;;;;;;;-3.00;99.90;;;;;;5011644;28;19925;-74
2022/12/18 10:46:10;;;;;;;;;;;-2.90;99.90;;;;;;5026620;28;19987;-75
2022/12/18 10:48:48;;;;;;;;;;;-2.70;99.90;;;;;;5030935;28;19925;-75
2022/12/18 10:51:20;;;;;;;;;;;-2.70;99.90;;;;;;5022805;28;20812;-75
2022/12/18 10:53:54;;;;;;;;;;;-2.70;99.90;;;;;;4993239;28;19951;-76
2022/12/18 10:56:27;;;;;;;;;;;-2.60;99.90;;;;;;5029883;28;20060;-75
2022/12/18 10:59:03;;;;;;;;;;;-2.50;99.90;;;;;;5029548;28;19932;-74
2022/12/18 11:01:55;;;;;;;;;;;-2.40;99.90;;;;;;5012337;28;19925;-74
2022/12/18 11:04:27;;;;;;;;;;;-2.40;99.90;;;;;;4999270;28;20331;-75
2022/12/18 11:06:59;;;;;;;;;;;-2.30;99.90;;;;;;4996250;28;20388;-75
2022/12/18 11:09:35;;;;;;;;;;;-2.30;99.90;;;;;;5012348;28;19945;-75
2022/12/18 11:12:09;;;;;;;;;;;-2.30;99.90;;;;;;4997750;28;19925;-75
2022/12/18 11:14:41;;;;;;;;;;;-2.30;99.90;;;;;;5016833;28;19926;-75
2022/12/18 11:17:25;;;;;;;;;;;-2.30;99.90;;;;;;5012837;28;19948;-74
2022/12/18 11:19:57;;;;;;;;;;;-2.30;99.90;;;;;;5014110;28;20288;-75
2022/12/18 11:22:31;;;;;;;;;;;-2.30;99.90;;;;;;4997613;28;20391;-74
2022/12/18 11:25:17;;;;;;;;;;;-2.30;99.90;;;;;;5023404;28;20366;-74
2022/12/18 11:27:54;;;;;;;;;;;-2.30;99.90;;;;;;5007180;28;19932;-75
2022/12/18 11:30:33;;;;;;;;;;;-2.40;99.90;;;;;;5012663;28;19926;-74
2022/12/18 11:33:08;;;;;;;;;;;-2.50;99.90;;;;;;5031743;28;19930;-75
2022/12/18 11:35:42;;;;;;;;;;;-2.70;99.90;;;;;;5012011;28;19926;-76
2022/12/18 11:38:18;;;;;;;;;;;-2.80;99.90;;;;;;5030365;28;19929;-75
2022/12/18 11:40:47;;;;;;;;;;;-2.70;99.90;;;;;;5012257;28;19925;-76
2022/12/18 11:43:21;;;;;;;;;;;-2.70;99.90;;;;;;4980761;28;19961;-74
2022/12/18 11:45:54;;;;;;;;;;;-2.50;99.90;;;;;;5019798;28;19925;-74
2022/12/18 11:48:37;;;;;;;;;;;-2.50;99.90;;;;;;5016334;28;19975;-73
2022/12/18 11:51:15;;;;;;;;;;;-2.50;99.90;;;;;;5022185;28;19930;-75
2022/12/18 11:53:47;;;;;;;;;;;-2.50;99.90;;;;;;5028214;28;19925;-75
2022/12/18 11:56:27;;;;;;;;;;;-2.40;99.90;;;;;;5017987;28;19929;-76
2022/12/18 11:58:59;;;;;;;;;;;-2.30;99.90;;;;;;5016838;28;19925;-75
2022/12/18 12:01:35;;;;;;;;;;;-2.40;99.90;;;;;;5031175;28;19925;-75
2022/12/18 12:04:14;;;;;;;;;;;-2.40;99.90;;;;;;5023883;28;19929;-76
2022/12/18 12:06:45;;;;;;;;;;;-2.40;99.90;;;;;;5021178;28;19926;-73
2022/12/18 12:09:23;;;;;;;;;;;-2.50;99.90;;;;;;5017064;28;20007;-74
2022/12/18 12:11:57;;;;;;;;;;;-2.50;99.90;;;;;;5030948;28;20507;-74
2022/12/18 12:14:39;;;;;;;;;;;-2.40;99.90;;;;;;5027946;28;20442;-74
2022/12/18 12:17:16;;;;;;;;;;;-2.40;99.90;;;;;;5023410;28;19999;-73
2022/12/18 12:20:03;;;;;;;;;;;-2.40;99.90;;;;;;5023422;28;19994;-73
2022/12/18 12:23:13;;;;;;;;;;;-2.40;99.90;;;;;;5019482;28;19925;-73
2022/12/18 12:25:54;;;;;;;;;;;-2.40;99.90;;;;;;4973903;28;20094;-75
2022/12/18 12:28:25;;;;;;;;;;;-2.30;99.90;;;;;;4981631;28;20321;-75
2022/12/18 12:31:05;;;;;;;;;;;-2.20;99.90;;;;;;4989157;28;19925;-75
2022/12/18 12:33:42;;;;;;;;;;;-2.20;99.90;;;;;;5023717;28;19929;-76
2022/12/18 12:36:34;;;;;;;;;;;-2.20;99.90;;;;;;5014616;28;19929;-74
2022/12/18 12:39:07;;;;;;;;;;;-2.20;99.90;;;;;;5020889;28;19936;-75
2022/12/18 12:44:33;;;;;;;;;;;-2.20;99.90;;;;;;5004660;28;19932;-74
2022/12/18 12:47:10;;;;;;;;;;;-2.20;99.90;;;;;;4999638;28;19929;-75
2022/12/18 12:49:47;;;;;;;;;;;-2.30;99.90;;;;;;5013142;28;20527;-75
2022/12/18 12:52:15;;;;;;;;;;;-2.20;99.90;;;;;;5009727;28;20059;-75
2022/12/18 12:54:48;;;;;;;;;;;-2.20;99.90;;;;;;5020304;28;19980;-74
2022/12/18 12:57:22;;;;;;;;;;;-2.20;99.90;;;;;;5012246;28;20355;-76
2022/12/18 13:00:09;;;;;;;;;;;-2.20;99.90;;;;;;4994653;28;19945;-75
2022/12/18 13:02:50;;;;;;;;;;;-2.20;99.90;;;;;;5014248;28;20374;-75
2022/12/18 13:05:31;;;;;;;;;;;-2.30;99.90;;;;;;5022810;28;20383;-75
2022/12/18 13:08:05;;;;;;;;;;;-2.20;99.90;;;;;;5018817;28;20359;-75
2022/12/18 13:10:38;;;;;;;;;;;-2.30;99.90;;;;;;5026802;28;19944;-75
2022/12/18 13:13:15;;;;;;;;;;;-2.00;99.90;;;;;;5026766;28;19932;-74
2022/12/18 13:16:06;;;;;;;;;;;-1.90;99.90;;;;;;5023107;28;20380;-75
2022/12/18 13:18:33;;;;;;;;;;;-2.30;99.90;;;;;;5000831;28;19976;-76
2022/12/18 13:21:25;;;;;;;;;;;-2.50;99.90;;;;;;4994025;28;19929;-73
2022/12/18 13:23:57;;;;;;;;;;;-2.70;99.90;;;;;;5022140;28;19995;-74
2022/12/18 13:26:30;;;;;;;;;;;-2.70;99.90;;;;;;4995577;28;19925;-73
2022/12/18 13:28:57;;;;;;;;;;;-2.80;99.90;;;;;;5011313;28;19929;-74
2022/12/18 13:31:29;;;;;;;;;;;-2.90;99.90;;;;;;5020426;28;19933;-75
2022/12/18 13:34:16;;;;;;;;;;;-2.90;99.90;;;;;;5025722;28;19929;-75
2022/12/18 13:36:48;;;;;;;;;;;-2.90;99.90;;;;;;5008737;28;19929;-75
2022/12/18 13:39:22;;;;;;;;;;;-2.90;99.90;;;;;;5025370;28;19925;-75
2022/12/18 13:45:00;;;;;;;;;;;-2.80;99.90;;;;;;4993856;28;19932;-74
2022/12/18 13:47:40;;;;;;;;;;;-2.80;99.90;;;;;;5018161;28;21034;-76
2022/12/18 13:50:19;;;;;;;;;;;-2.80;99.90;;;;;;5025112;28;19925;-75
2022/12/18 13:52:52;;;;;;;;;;;-2.80;99.90;;;;;;5025992;28;19925;-76
2022/12/18 13:55:23;;;;;;;;;;;-2.90;99.90;;;;;;5023726;28;19930;-76
2022/12/18 13:58:05;;;;;;;;;;;-2.90;99.90;;;;;;5006995;28;19926;-74
2022/12/18 14:00:41;;;;;;;;;;;-3.00;99.90;;;;;;5010613;28;19929;-75
2022/12/18 14:03:27;;;;;;;;;;;-3.00;99.90;;;;;;5026421;28;19925;-76
2022/12/18 14:06:01;;;;;;;;;;;-3.10;99.90;;;;;;5028346;28;19995;-75
2022/12/18 14:08:32;;;;;;;;;;;-3.10;99.90;;;;;;5000705;28;20007;-74
2022/12/18 14:11:04;;;;;;;;;;;-3.10;99.90;;;;;;5027077;28;19925;-75
2022/12/18 14:13:38;;;;;;;;;;;-3.20;99.90;;;;;;5008977;28;19930;-76
2022/12/18 14:16:13;;;;;;;;;;;-3.20;99.90;;;;;;4999459;28;20022;-75
2022/12/18 14:18:47;;;;;;;;;;;-3.20;99.90;;;;;;5022647;28;19948;-74
2022/12/18 14:21:25;;;;;;;;;;;-3.10;99.90;;;;;;5028552;28;19925;-76
2022/12/18 14:24:17;;;;;;;;;;;-3.10;99.90;;;;;;5018462;28;20664;-74
2022/12/18 14:26:49;;;;;;;;;;;-3.10;99.90;;;;;;5026665;28;19940;-75
2022/12/18 14:29:23;;;;;;;;;;;-3.10;99.90;;;;;;4994896;28;19925;-76
2022/12/18 14:32:24;;;;;;;;;;;-3.10;99.90;;;;;;5009038;28;19956;-74
2022/12/18 14:34:55;;;;;;;;;;;-3.10;99.90;;;;;;5001854;28;19929;-75
2022/12/18 14:37:27;;;;;;;;;;;-3.10;99.90;;;;;;4998942;28;20425;-74
2022/12/18 14:39:59;;;;;;;;;;;-3.10;99.90;;;;;;4997334;28;20365;-74
2022/12/18 14:42:31;;;;;;;;;;;-3.30;99.90;;;;;;5031626;28;19975;-75
2022/12/18 14:45:22;;;;;;;;;;;-3.30;99.90;;;;;;4997440;28;19925;-74
2022/12/18 14:47:53;;;;;;;;;;;-3.40;99.90;;;;;;5006525;28;19930;-74
2022/12/18 14:50:26;;;;;;;;;;;-3.50;99.90;;;;;;5013814;28;19930;-74
2022/12/18 14:52:57;;;;;;;;;;;-3.40;99.90;;;;;;5019317;28;19979;-75
2022/12/18 14:55:24;;;;;;;;;;;-3.40;99.90;;;;;;5008372;28;19980;-75
2022/12/18 14:57:57;;;;;;;;;;;-3.40;99.90;;;;;;5015774;28;20663;-74
2022/12/18 15:00:30;;;;;;;;;;;-3.40;99.90;;;;;;5015298;28;20339;-74
2022/12/18 15:03:07;;;;;;;;;;;-3.50;99.90;;;;;;5030831;28;19991;-75
2022/12/18 15:05:34;;;;;;;;;;;-3.50;99.90;;;;;;5012660;28;20478;-75
2022/12/18 15:08:27;;;;;;;;;;;-3.50;99.90;;;;;;5026989;28;19929;-74